Time;durP1;ratioP1;P1;durP2;ratioP2;P2;SDS_P1;SDS_P2;PMS_P1;PMS_P2;Temp;Humidity;BMP_temperature;BMP_pressure;BME280_temperature;BME280_humidity;BME280_pressure;Samples;Min_cycle;Max_cycle;Signal;HPM_P1;HPM_P2
2023/12/04 00:00:46;;;;;;;49.60;21.05;;;0.80;99.90;;;;;;5017383;28;20029;-87
2023/12/04 00:03:12;;;;;;;51.47;21.13;;;0.80;99.90;;;;;;5015412;28;20033;-88
2023/12/04 00:05:37;;;;;;;50.25;21.00;;;0.80;99.90;;;;;;5017037;28;20052;-87
2023/12/04 00:08:03;;;;;;;52.30;19.50;;;0.80;99.90;;;;;;5034033;28;20073;-86
2023/12/04 00:10:29;;;;;;;47.25;20.20;;;0.80;99.90;;;;;;5016153;28;20512;-88
2023/12/04 00:12:54;;;;;;;51.22;18.92;;;0.80;99.90;;;;;;5012344;28;20041;-87
2023/12/04 00:15:21;;;;;;;44.60;18.55;;;0.80;99.90;;;;;;5031232;28;20029;-87
2023/12/04 00:17:47;;;;;;;47.55;18.35;;;0.80;99.90;;;;;;5034586;28;20021;-87
2023/12/04 00:20:12;;;;;;;44.70;19.23;;;0.80;99.90;;;;;;5033448;28;20041;-87
2023/12/04 00:22:38;;;;;;;44.03;19.27;;;0.80;99.90;;;;;;5013385;28;20022;-87
2023/12/04 00:25:06;;;;;;;47.17;19.35;;;0.80;99.90;;;;;;5018276;28;20051;-87
2023/12/04 00:27:32;;;;;;;43.30;19.52;;;0.80;99.90;;;;;;5022310;28;20124;-85
2023/12/04 00:29:57;;;;;;;46.95;20.10;;;0.80;99.90;;;;;;5005149;28;20104;-88
2023/12/04 00:32:23;;;;;;;48.63;20.67;;;0.70;99.90;;;;;;5016366;28;20205;-86
2023/12/04 00:34:49;;;;;;;44.25;19.13;;;0.80;99.90;;;;;;5012964;28;20026;-87
2023/12/04 00:37:15;;;;;;;43.70;18.60;;;0.80;99.90;;;;;;5015194;28;20120;-86
2023/12/04 00:39:40;;;;;;;47.13;19.15;;;0.80;99.90;;;;;;5013691;28;20033;-87
2023/12/04 00:42:06;;;;;;;51.30;19.92;;;0.80;99.90;;;;;;5013171;28;20444;-88
2023/12/04 00:44:31;;;;;;;44.17;18.75;;;0.80;99.90;;;;;;5008532;28;20110;-87
2023/12/04 00:46:57;;;;;;;45.30;19.80;;;0.70;99.90;;;;;;5005705;28;20033;-86
2023/12/04 00:49:23;;;;;;;43.83;19.05;;;0.80;99.90;;;;;;5014920;28;20033;-87
2023/12/04 00:51:49;;;;;;;45.50;18.52;;;0.80;99.90;;;;;;5025968;28;20104;-87
2023/12/04 00:54:14;;;;;;;45.67;18.70;;;0.80;99.90;;;;;;5015672;28;20446;-87
2023/12/04 00:56:40;;;;;;;47.47;19.48;;;0.80;99.90;;;;;;5013388;28;20036;-87
2023/12/04 00:59:08;;;;;;;42.30;19.60;;;0.80;99.90;;;;;;5008135;28;20029;-86
2023/12/04 01:01:35;;;;;;;45.47;19.13;;;0.80;99.90;;;;;;5013376;28;20078;-87
2023/12/04 01:04:01;;;;;;;48.50;18.55;;;0.80;99.90;;;;;;5026707;28;20033;-88
2023/12/04 01:06:26;;;;;;;48.17;19.88;;;0.80;99.90;;;;;;5004615;28;20030;-88
2023/12/04 01:08:54;;;;;;;49.75;19.25;;;0.80;99.90;;;;;;5017381;28;20177;-87
2023/12/04 01:11:19;;;;;;;46.42;19.33;;;0.80;99.90;;;;;;5030520;28;20087;-87
2023/12/04 01:13:45;;;;;;;44.30;19.52;;;0.80;99.90;;;;;;5016493;28;20447;-87
2023/12/04 01:16:10;;;;;;;43.90;20.10;;;0.80;99.90;;;;;;5015115;28;20386;-88
2023/12/04 01:18:36;;;;;;;42.85;17.85;;;0.80;99.90;;;;;;5033550;28;20033;-87
2023/12/04 01:21:02;;;;;;;47.72;19.92;;;0.80;99.90;;;;;;5029762;28;20029;-87
2023/12/04 01:23:28;;;;;;;45.72;19.10;;;0.80;99.90;;;;;;5021035;28;20064;-87
2023/12/04 01:25:53;;;;;;;43.03;18.83;;;0.70;99.90;;;;;;5030486;28;20022;-88
2023/12/04 01:28:19;;;;;;;45.17;18.75;;;0.70;99.90;;;;;;5014924;28;20073;-87
2023/12/04 01:30:45;;;;;;;45.97;19.95;;;0.80;99.90;;;;;;5010706;28;20117;-87
2023/12/04 01:33:10;;;;;;;42.70;19.98;;;0.80;99.90;;;;;;5023905;28;20033;-87
2023/12/04 01:35:36;;;;;;;50.25;20.45;;;0.70;99.90;;;;;;5015552;28;20382;-87
2023/12/04 01:38:01;;;;;;;42.67;19.63;;;0.70;99.90;;;;;;5009296;28;20050;-87
2023/12/04 01:40:27;;;;;;;40.70;18.33;;;0.70;99.90;;;;;;5003855;28;20033;-87
2023/12/04 01:42:53;;;;;;;43.38;18.42;;;0.70;99.90;;;;;;5011433;28;20060;-87
2023/12/04 01:45:19;;;;;;;42.65;19.38;;;0.70;99.90;;;;;;5010503;28;20029;-87
2023/12/04 01:47:45;;;;;;;39.05;17.75;;;0.70;99.90;;;;;;5016810;28;20412;-87
2023/12/04 01:50:12;;;;;;;40.15;17.92;;;0.70;99.90;;;;;;5031393;28;20025;-88
2023/12/04 01:52:39;;;;;;;41.38;17.77;;;0.70;99.90;;;;;;5014479;28;20363;-87
2023/12/04 01:55:07;;;;;;;41.17;18.83;;;0.70;99.90;;;;;;5028886;28;20079;-87
2023/12/04 01:57:33;;;;;;;43.75;18.33;;;0.60;99.90;;;;;;5012660;28;20092;-87
2023/12/04 01:59:59;;;;;;;41.08;18.02;;;0.70;99.90;;;;;;5013722;28;20030;-87
2023/12/04 02:02:26;;;;;;;38.55;17.23;;;0.70;99.90;;;;;;5012105;28;20021;-87
2023/12/04 02:04:55;;;;;;;39.85;17.42;;;0.70;99.90;;;;;;5012959;28;20036;-87
2023/12/04 02:07:20;;;;;;;38.92;18.52;;;0.70;99.90;;;;;;5008951;28;20033;-87
2023/12/04 02:09:46;;;;;;;42.35;17.45;;;0.70;99.90;;;;;;5012305;28;20029;-87
2023/12/04 02:12:12;;;;;;;35.97;16.42;;;0.70;99.90;;;;;;5009099;28;20068;-87
2023/12/04 02:14:37;;;;;;;38.67;18.13;;;0.80;99.90;;;;;;5026922;28;20026;-87
2023/12/04 02:17:06;;;;;;;39.42;18.40;;;0.70;99.90;;;;;;5012384;28;20044;-87
2023/12/04 02:19:32;;;;;;;36.95;16.85;;;0.70;99.90;;;;;;5028261;28;20112;-88
2023/12/04 02:21:57;;;;;;;36.95;16.67;;;0.70;99.90;;;;;;5012868;28;20429;-88
2023/12/04 02:24:23;;;;;;;36.10;16.38;;;0.80;99.90;;;;;;5020269;28;20132;-88
2023/12/04 02:27:02;;;;;;;37.00;17.70;;;0.80;99.90;;;;;;5012686;28;20032;-88
2023/12/04 02:29:43;;;;;;;37.67;16.00;;;0.70;99.90;;;;;;5029461;28;20033;-87
2023/12/04 02:32:14;;;;;;;35.30;16.52;;;0.70;99.90;;;;;;5009649;28;20049;-87
2023/12/04 02:34:41;;;;;;;34.95;15.85;;;0.70;99.90;;;;;;5009933;28;20517;-87
2023/12/04 02:37:08;;;;;;;35.22;17.05;;;0.80;99.90;;;;;;5030036;28;20036;-87
2023/12/04 02:39:33;;;;;;;32.58;14.70;;;0.80;99.90;;;;;;5013215;28;20513;-87
2023/12/04 02:41:59;;;;;;;36.55;16.83;;;0.80;99.90;;;;;;5030878;28;20080;-87
2023/12/04 02:44:25;;;;;;;36.10;14.43;;;0.80;99.90;;;;;;5015344;28;20496;-88
2023/12/04 02:46:51;;;;;;;32.25;16.33;;;0.80;99.90;;;;;;5016947;28;20106;-88
2023/12/04 02:49:16;;;;;;;33.65;15.40;;;0.80;99.90;;;;;;5034049;28;20033;-88
2023/12/04 02:51:42;;;;;;;35.35;16.48;;;0.80;99.90;;;;;;5033676;28;20029;-87
2023/12/04 02:54:07;;;;;;;34.60;15.27;;;0.80;99.90;;;;;;5015618;28;20033;-87
2023/12/04 02:56:33;;;;;;;30.88;14.73;;;0.80;99.90;;;;;;5016181;28;20025;-88
2023/12/04 02:58:59;;;;;;;35.28;15.00;;;0.80;99.90;;;;;;5020276;28;20108;-88
2023/12/04 03:01:24;;;;;;;33.15;15.18;;;0.80;99.90;;;;;;5030362;28;20080;-88
2023/12/04 03:03:50;;;;;;;30.40;13.65;;;0.80;99.90;;;;;;5015080;28;20041;-87
2023/12/04 03:06:18;;;;;;;34.70;14.73;;;0.80;99.90;;;;;;5029321;28;20483;-88
2023/12/04 03:08:44;;;;;;;30.50;13.80;;;0.80;99.90;;;;;;5010452;28;20519;-87
2023/12/04 03:11:09;;;;;;;33.75;14.27;;;0.90;99.90;;;;;;5014824;28;20029;-87
2023/12/04 03:13:35;;;;;;;35.20;15.80;;;0.90;99.90;;;;;;5028450;28;20032;-87
2023/12/04 03:16:01;;;;;;;31.50;14.48;;;0.80;99.90;;;;;;5032818;28;20470;-88
2023/12/04 03:18:28;;;;;;;31.45;13.77;;;0.90;99.90;;;;;;5022550;28;20144;-88
2023/12/04 03:20:54;;;;;;;28.55;12.98;;;0.90;99.90;;;;;;5013762;28;20025;-88
2023/12/04 03:23:20;;;;;;;30.52;14.95;;;0.80;99.90;;;;;;5016444;28;20539;-88
2023/12/04 03:25:45;;;;;;;29.42;14.18;;;0.80;99.90;;;;;;5010858;28;20021;-87
2023/12/04 03:28:13;;;;;;;33.33;14.38;;;0.80;99.90;;;;;;5010690;28;20480;-87
2023/12/04 03:30:38;;;;;;;30.00;14.15;;;0.80;99.90;;;;;;5016268;28;20022;-87
2023/12/04 03:33:04;;;;;;;31.40;14.60;;;0.80;99.90;;;;;;5020580;28;20140;-88
2023/12/04 03:35:29;;;;;;;28.25;13.27;;;0.80;99.90;;;;;;5008468;28;20033;-87
2023/12/04 03:37:55;;;;;;;28.15;13.38;;;0.80;99.90;;;;;;5023821;28;20132;-87
2023/12/04 03:40:20;;;;;;;31.05;14.10;;;0.80;99.90;;;;;;5019670;28;20026;-88
2023/12/04 03:42:46;;;;;;;30.33;13.60;;;0.70;99.90;;;;;;5020017;28;20029;-88
2023/12/04 03:45:11;;;;;;;27.52;12.52;;;0.70;99.90;;;;;;5018203;28;20021;-88
2023/12/04 03:47:37;;;;;;;28.60;13.63;;;0.70;99.90;;;;;;5015643;28;20091;-87
2023/12/04 03:50:03;;;;;;;28.48;13.82;;;0.70;99.90;;;;;;5015146;28;20029;-87
2023/12/04 03:52:28;;;;;;;27.30;12.75;;;0.80;99.90;;;;;;5012101;28;20029;-87
2023/12/04 03:54:54;;;;;;;23.92;12.38;;;0.70;99.90;;;;;;5015063;28;20087;-87
2023/12/04 03:57:19;;;;;;;31.00;14.32;;;0.70;99.90;;;;;;5014322;28;20037;-88
2023/12/04 03:59:45;;;;;;;28.27;13.30;;;0.70;99.90;;;;;;5017902;28;20033;-88
2023/12/04 04:02:10;;;;;;;28.52;13.60;;;0.70;99.90;;;;;;5019228;28;20033;-87
2023/12/04 04:04:36;;;;;;;25.63;12.82;;;0.70;99.90;;;;;;5007274;28;20052;-87
2023/12/04 04:07:01;;;;;;;27.75;13.68;;;0.70;99.90;;;;;;5019505;28;20029;-88
2023/12/04 04:09:27;;;;;;;24.88;13.10;;;0.70;99.90;;;;;;5031227;28;20029;-87
2023/12/04 04:11:53;;;;;;;27.17;13.07;;;0.70;99.90;;;;;;5032343;28;20083;-87
2023/12/04 04:14:18;;;;;;;25.52;13.15;;;0.70;99.90;;;;;;5018146;28;20032;-87
2023/12/04 04:16:44;;;;;;;25.40;12.63;;;0.70;99.90;;;;;;5013332;28;20027;-87
2023/12/04 04:19:09;;;;;;;25.55;12.65;;;0.70;99.90;;;;;;5030815;28;20029;-87
2023/12/04 04:21:40;;;;;;;25.13;13.45;;;0.70;99.90;;;;;;5015920;28;20025;-88
2023/12/04 04:24:06;;;;;;;29.25;12.38;;;0.70;99.90;;;;;;5012445;28;20029;-87
2023/12/04 04:26:31;;;;;;;25.17;13.05;;;0.70;99.90;;;;;;5014608;28;20026;-87
2023/12/04 04:28:58;;;;;;;23.55;11.85;;;0.70;99.90;;;;;;5014427;28;20089;-87
2023/12/04 04:31:24;;;;;;;27.77;13.00;;;0.70;99.90;;;;;;5018418;28;20029;-87
2023/12/04 04:33:50;;;;;;;28.02;13.43;;;0.70;99.90;;;;;;5009789;28;20124;-87
2023/12/04 04:36:15;;;;;;;26.40;13.13;;;0.70;99.90;;;;;;5016808;28;20060;-87
2023/12/04 04:38:41;;;;;;;25.90;13.00;;;0.70;99.90;;;;;;5014448;28;20050;-87
2023/12/04 04:41:07;;;;;;;25.08;13.55;;;0.70;99.90;;;;;;5014332;28;20044;-88
2023/12/04 04:43:33;;;;;;;25.13;12.50;;;0.70;99.90;;;;;;5016141;28;20526;-87
2023/12/04 04:45:58;;;;;;;22.88;11.65;;;0.70;99.90;;;;;;5018150;28;20044;-87
2023/12/04 04:48:24;;;;;;;26.05;12.05;;;0.70;99.90;;;;;;5016199;28;20033;-87
2023/12/04 04:50:50;;;;;;;26.45;13.43;;;0.70;99.90;;;;;;5015664;28;20068;-88
2023/12/04 04:53:15;;;;;;;24.10;11.77;;;0.70;99.90;;;;;;5015771;28;20037;-88
2023/12/04 04:55:41;;;;;;;21.55;11.20;;;0.70;99.90;;;;;;5000416;28;20022;-88
2023/12/04 04:58:06;;;;;;;24.02;12.30;;;0.70;99.90;;;;;;5014252;28;20026;-87
2023/12/04 05:00:32;;;;;;;25.35;11.90;;;0.70;99.90;;;;;;5021009;28;20033;-87
2023/12/04 05:02:57;;;;;;;24.35;12.27;;;0.70;99.90;;;;;;5025021;28;20036;-87
2023/12/04 05:05:23;;;;;;;25.95;12.52;;;0.70;99.90;;;;;;5008244;28;20029;-87
2023/12/04 05:07:49;;;;;;;21.05;11.90;;;0.70;99.90;;;;;;5018852;28;20037;-88
2023/12/04 05:10:14;;;;;;;23.85;12.07;;;0.70;99.90;;;;;;5017963;28;20113;-88
2023/12/04 05:12:40;;;;;;;23.98;11.25;;;0.70;99.90;;;;;;5018471;28;20025;-88
2023/12/04 05:15:06;;;;;;;23.63;11.60;;;0.70;99.90;;;;;;5023761;28;20029;-88
2023/12/04 05:17:32;;;;;;;22.48;11.82;;;0.70;99.90;;;;;;5007482;28;20034;-88
2023/12/04 05:19:57;;;;;;;22.77;11.50;;;0.70;99.90;;;;;;5013343;28;20028;-87
2023/12/04 05:22:23;;;;;;;23.98;11.85;;;0.70;99.90;;;;;;5013041;28;20436;-87
2023/12/04 05:24:48;;;;;;;22.45;11.75;;;0.60;99.90;;;;;;5019924;28;20037;-88
2023/12/04 05:27:14;;;;;;;22.10;10.88;;;0.60;99.90;;;;;;5011523;28;20057;-88
2023/12/04 05:29:39;;;;;;;24.42;9.77;;;0.70;99.90;;;;;;5019103;28;20120;-88
2023/12/04 05:32:05;;;;;;;21.58;10.63;;;0.70;99.90;;;;;;5014227;28;20120;-89
2023/12/04 05:34:31;;;;;;;22.52;10.82;;;0.70;99.90;;;;;;5011352;28;20021;-88
2023/12/04 05:36:56;;;;;;;22.80;11.68;;;0.70;99.90;;;;;;5014278;28;20025;-88
2023/12/04 05:39:22;;;;;;;22.23;11.25;;;0.70;99.90;;;;;;5012260;28;20048;-88
2023/12/04 05:41:47;;;;;;;24.40;12.27;;;0.70;99.90;;;;;;5011088;28;20112;-89
2023/12/04 05:44:13;;;;;;;20.98;11.27;;;0.70;99.90;;;;;;5014282;28;20030;-88
2023/12/04 05:46:39;;;;;;;22.25;10.95;;;0.70;99.90;;;;;;5020596;28;20492;-88
2023/12/04 05:49:05;;;;;;;21.77;10.55;;;0.70;99.90;;;;;;5014879;28;20080;-88
2023/12/04 05:51:30;;;;;;;19.45;10.07;;;0.70;99.90;;;;;;5014269;28;20843;-88
2023/12/04 05:53:56;;;;;;;20.38;11.05;;;0.80;99.90;;;;;;5021791;28;20115;-88
2023/12/04 05:56:21;;;;;;;18.95;11.15;;;0.70;99.90;;;;;;5013581;28;20033;-87
2023/12/04 05:58:47;;;;;;;19.58;9.85;;;0.80;99.90;;;;;;5013814;28;20116;-87
2023/12/04 06:01:15;;;;;;;19.98;9.85;;;0.70;99.90;;;;;;5007401;28;20036;-88
2023/12/04 06:03:40;;;;;;;21.75;9.95;;;0.80;99.90;;;;;;5018140;28;20034;-88
2023/12/04 06:06:06;;;;;;;21.17;10.82;;;0.80;99.90;;;;;;5023896;28;20055;-88
2023/12/04 06:08:32;;;;;;;20.17;9.32;;;0.80;99.90;;;;;;5017415;28;20045;-88
2023/12/04 06:10:57;;;;;;;18.95;9.93;;;0.80;99.90;;;;;;5018538;28;20120;-88
2023/12/04 06:13:23;;;;;;;15.73;8.68;;;0.80;99.90;;;;;;5008808;28;20048;-88
2023/12/04 06:15:49;;;;;;;21.80;10.25;;;0.80;99.90;;;;;;5013998;28;20026;-89
2023/12/04 06:18:15;;;;;;;16.30;8.60;;;0.80;99.90;;;;;;5009467;28;20036;-88
2023/12/04 06:20:40;;;;;;;16.95;9.27;;;0.80;99.90;;;;;;5014765;28;20052;-88
2023/12/04 06:23:06;;;;;;;18.40;9.38;;;0.80;99.90;;;;;;5014802;28;20061;-89
2023/12/04 06:25:32;;;;;;;16.77;9.48;;;0.80;99.90;;;;;;5015525;28;20485;-88
2023/12/04 06:27:58;;;;;;;16.65;9.18;;;0.80;99.90;;;;;;5012302;28;20037;-88
2023/12/04 06:30:24;;;;;;;18.80;9.27;;;0.80;99.90;;;;;;5012054;28;20040;-88
2023/12/04 06:32:50;;;;;;;14.82;8.40;;;0.80;99.90;;;;;;5014324;28;20033;-89
2023/12/04 06:35:16;;;;;;;18.83;8.88;;;0.80;99.90;;;;;;5013363;28;20097;-88
2023/12/04 06:37:42;;;;;;;20.52;10.05;;;0.80;99.90;;;;;;5014813;28;20045;-88
2023/12/04 06:40:11;;;;;;;14.90;8.05;;;0.80;99.90;;;;;;5017009;28;20509;-88
2023/12/04 06:42:37;;;;;;;16.52;8.50;;;0.80;99.90;;;;;;5012889;28;20025;-89
2023/12/04 06:45:03;;;;;;;15.77;9.00;;;0.80;99.90;;;;;;5015974;28;20036;-88
2023/12/04 06:47:31;;;;;;;19.90;9.80;;;0.80;99.90;;;;;;5014623;28;20122;-88
2023/12/04 06:49:56;;;;;;;19.95;9.85;;;0.90;99.90;;;;;;5004610;28;20057;-88
2023/12/04 06:52:22;;;;;;;15.40;8.20;;;0.90;99.90;;;;;;5030324;28;20133;-89
2023/12/04 06:54:47;;;;;;;18.15;8.45;;;0.80;99.90;;;;;;5030490;28;20037;-89
2023/12/04 06:57:14;;;;;;;18.83;8.98;;;0.80;99.90;;;;;;5031728;28;20029;-89
2023/12/04 06:59:41;;;;;;;15.65;8.57;;;0.80;99.90;;;;;;5006207;28;20072;-88
2023/12/04 07:02:07;;;;;;;16.08;8.73;;;0.80;99.90;;;;;;5014207;28;20025;-88
2023/12/04 07:04:32;;;;;;;18.77;9.73;;;0.80;99.90;;;;;;5011549;28;20128;-89
2023/12/04 07:07:00;;;;;;;16.15;8.55;;;0.80;99.90;;;;;;5017984;28;20030;-88
2023/12/04 07:09:27;;;;;;;15.90;7.55;;;0.80;99.90;;;;;;5013680;28;20560;-89
2023/12/04 07:11:53;;;;;;;18.02;8.32;;;0.90;99.90;;;;;;5003270;28;20110;-89
2023/12/04 07:14:18;;;;;;;14.55;8.23;;;0.90;99.90;;;;;;5015374;28;20026;-89
2023/12/04 07:16:44;;;;;;;15.40;8.40;;;0.90;99.90;;;;;;5013612;28;20043;-89
2023/12/04 07:19:10;;;;;;;16.25;8.07;;;0.80;99.90;;;;;;5010035;28;20060;-89
2023/12/04 07:21:37;;;;;;;13.88;7.25;;;0.90;99.90;;;;;;5031951;28;20057;-89
2023/12/04 07:24:03;;;;;;;14.38;7.45;;;0.80;99.90;;;;;;5014908;28;20025;-89
2023/12/04 07:26:28;;;;;;;14.73;7.82;;;0.80;99.90;;;;;;5018275;28;20095;-89
2023/12/04 07:28:54;;;;;;;13.30;7.57;;;0.90;99.90;;;;;;5019983;28;20041;-89
2023/12/04 07:31:19;;;;;;;14.52;7.65;;;0.80;99.90;;;;;;5019105;28;20596;-90
2023/12/04 07:33:45;;;;;;;17.50;8.18;;;0.90;99.90;;;;;;5020274;28;20033;-89
2023/12/04 07:36:11;;;;;;;12.77;6.82;;;0.90;99.90;;;;;;5024538;28;20024;-89
2023/12/04 07:38:37;;;;;;;13.25;7.22;;;0.90;99.90;;;;;;5022345;28;20077;-89
2023/12/04 07:41:02;;;;;;;11.88;6.95;;;0.90;99.90;;;;;;5018018;28;20118;-89
2023/12/04 07:43:28;;;;;;;16.02;7.78;;;0.90;99.90;;;;;;5010228;28;20039;-89
2023/12/04 07:45:56;;;;;;;13.82;6.63;;;0.90;99.90;;;;;;5010975;28;20026;-89
2023/12/04 07:48:21;;;;;;;12.77;6.93;;;0.90;99.90;;;;;;5017771;28;20088;-88
2023/12/04 07:50:47;;;;;;;15.48;7.65;;;0.90;99.90;;;;;;5010612;28;20422;-89
2023/12/04 07:53:13;;;;;;;14.63;7.38;;;0.90;99.90;;;;;;5003825;28;20052;-89
2023/12/04 07:55:39;;;;;;;12.13;7.05;;;0.90;99.90;;;;;;5013357;28;20109;-90
2023/12/04 07:58:05;;;;;;;15.68;7.65;;;0.90;99.90;;;;;;5040360;28;20060;-89
2023/12/04 08:00:30;;;;;;;17.38;7.68;;;0.90;99.90;;;;;;5012016;28;20054;-90
2023/12/04 08:02:56;;;;;;;17.10;7.95;;;0.90;99.90;;;;;;5021437;28;20068;-89
2023/12/04 08:05:22;;;;;;;13.75;7.22;;;1.00;99.90;;;;;;5010823;28;20109;-89
2023/12/04 08:07:47;;;;;;;13.07;7.25;;;1.00;99.90;;;;;;5009951;28;20414;-90
2023/12/04 08:10:14;;;;;;;15.18;7.22;;;1.00;99.90;;;;;;5003201;28;20026;-90
2023/12/04 08:12:39;;;;;;;13.77;7.38;;;1.00;99.90;;;;;;5024265;28;20033;-90
2023/12/04 08:15:05;;;;;;;12.13;6.75;;;1.00;99.90;;;;;;5020146;28;20040;-89
2023/12/04 08:17:31;;;;;;;13.50;7.43;;;1.00;99.90;;;;;;5001338;28;20770;-89
2023/12/04 08:19:56;;;;;;;17.05;8.55;;;1.00;99.90;;;;;;5027256;28;20030;-90
2023/12/04 08:22:22;;;;;;;14.30;7.40;;;1.00;99.90;;;;;;4999051;28;20099;-90
2023/12/04 08:24:48;;;;;;;17.92;7.60;;;1.00;99.90;;;;;;5013697;28;20108;-89
2023/12/04 08:27:13;;;;;;;11.43;6.53;;;1.10;99.90;;;;;;5005051;28;20038;-90
2023/12/04 08:29:42;;;;;;;15.40;7.55;;;1.00;99.90;;;;;;5008871;28;20040;-90
2023/12/04 08:32:07;;;;;;;11.45;6.75;;;1.10;99.90;;;;;;5009882;28;20037;-90
2023/12/04 08:34:33;;;;;;;12.07;6.53;;;1.10;99.90;;;;;;5021674;28;20453;-90
2023/12/04 08:36:58;;;;;;;13.80;7.55;;;1.10;99.90;;;;;;5025698;28;20025;-91
2023/12/04 08:39:24;;;;;;;12.60;6.47;;;1.10;99.90;;;;;;5020071;28;20147;-90
2023/12/04 08:41:50;;;;;;;14.05;7.22;;;1.10;99.90;;;;;;5007411;28;20022;-91
2023/12/04 08:44:15;;;;;;;13.32;7.25;;;1.20;99.90;;;;;;5008640;28;20029;-90
2023/12/04 08:46:43;;;;;;;12.73;6.93;;;1.20;99.90;;;;;;5009137;28;20029;-91
2023/12/04 08:49:09;;;;;;;15.25;7.68;;;1.20;99.90;;;;;;5017481;28;20034;-89
2023/12/04 08:51:34;;;;;;;14.25;6.88;;;1.20;99.90;;;;;;5009605;28;20029;-89
2023/12/04 08:54:00;;;;;;;12.00;6.50;;;1.20;99.90;;;;;;5009223;28;20168;-90
2023/12/04 08:56:25;;;;;;;12.13;6.70;;;1.30;99.90;;;;;;5013557;28;20032;-89
2023/12/04 08:58:51;;;;;;;12.93;6.72;;;1.30;99.90;;;;;;5014885;28;20119;-89
2023/12/04 09:01:17;;;;;;;12.38;6.47;;;1.30;99.90;;;;;;5027388;28;20268;-89
2023/12/04 09:03:42;;;;;;;13.32;7.03;;;1.30;99.90;;;;;;5024795;28;20087;-90
2023/12/04 09:06:08;;;;;;;14.23;6.13;;;1.40;99.90;;;;;;5022325;28;20021;-90
2023/12/04 09:08:35;;;;;;;13.10;6.68;;;1.40;99.90;;;;;;5013180;28;22442;-91
2023/12/04 09:11:00;;;;;;;12.18;6.32;;;1.40;99.90;;;;;;5013972;28;20055;-91
2023/12/04 09:13:26;;;;;;;12.98;6.47;;;1.40;99.90;;;;;;5013871;28;20092;-89
2023/12/04 09:15:52;;;;;;;14.02;7.05;;;1.40;99.90;;;;;;5015127;28;20108;-90
2023/12/04 09:18:18;;;;;;;12.75;6.60;;;1.40;99.90;;;;;;5023281;28;20029;-90
2023/12/04 09:20:44;;;;;;;13.38;6.32;;;1.50;99.90;;;;;;5017061;28;20522;-90
2023/12/04 09:23:09;;;;;;;11.73;6.40;;;1.50;99.90;;;;;;5011730;28;20034;-91
2023/12/04 09:25:35;;;;;;;18.27;7.40;;;1.50;99.90;;;;;;5006677;28;20053;-90
2023/12/04 09:28:01;;;;;;;15.02;7.45;;;1.50;99.90;;;;;;5024306;28;20060;-90
2023/12/04 09:30:26;;;;;;;11.65;6.47;;;1.60;99.90;;;;;;5013262;28;20138;-90
2023/12/04 09:32:52;;;;;;;14.40;7.57;;;1.60;99.90;;;;;;5013449;28;20206;-91
2023/12/04 09:35:18;;;;;;;16.17;7.07;;;1.60;99.90;;;;;;5014186;28;20026;-90
2023/12/04 09:37:43;;;;;;;15.15;8.00;;;1.60;99.90;;;;;;5009409;28;20045;-86
2023/12/04 09:40:10;;;;;;;13.30;7.00;;;1.60;99.90;;;;;;5013956;28;20386;-90
2023/12/04 09:42:36;;;;;;;16.08;7.85;;;1.60;99.90;;;;;;5006651;28;20429;-88
2023/12/04 09:45:02;;;;;;;11.32;6.28;;;1.70;99.90;;;;;;5014508;28;20083;-87
2023/12/04 09:47:29;;;;;;;16.50;8.23;;;1.70;99.90;;;;;;5005051;28;20045;-88
2023/12/04 09:49:56;;;;;;;15.90;7.32;;;1.70;99.90;;;;;;5013949;28;20021;-88
2023/12/04 09:52:22;;;;;;;17.85;8.27;;;1.70;99.90;;;;;;5011768;28;20030;-88
2023/12/04 09:54:48;;;;;;;13.98;7.50;;;1.80;99.90;;;;;;5007210;28;20025;-87
2023/12/04 09:57:14;;;;;;;15.05;8.23;;;1.80;99.90;;;;;;5012500;28;20026;-87
2023/12/04 09:59:40;;;;;;;17.55;8.95;;;1.80;99.90;;;;;;5012808;28;20458;-87
2023/12/04 10:02:06;;;;;;;14.38;8.63;;;1.80;99.90;;;;;;5010322;28;20036;-87
2023/12/04 10:04:33;;;;;;;14.65;8.75;;;1.80;99.90;;;;;;5022894;28;20116;-88
2023/12/04 10:06:59;;;;;;;16.27;8.85;;;1.80;99.90;;;;;;5018145;28;20022;-88
2023/12/04 10:09:25;;;;;;;18.35;8.93;;;1.80;99.90;;;;;;5017146;28;20504;-88
2023/12/04 10:11:51;;;;;;;18.27;9.18;;;1.80;99.90;;;;;;5013543;28;20033;-88
2023/12/04 10:14:21;;;;;;;15.80;8.93;;;1.80;99.90;;;;;;5007703;28;20026;-88
2023/12/04 10:16:48;;;;;;;16.77;8.95;;;1.90;99.90;;;;;;5015079;28;20026;-89
2023/12/04 10:19:22;;;;;;;17.17;9.55;;;1.80;99.90;;;;;;5015213;28;20022;-88
2023/12/04 10:21:49;;;;;;;17.63;8.77;;;1.90;99.90;;;;;;5027417;28;20021;-87
2023/12/04 10:24:35;;;;;;;18.25;9.00;;;1.90;99.90;;;;;;5012112;28;20388;-87
2023/12/04 10:27:08;;;;;;;16.73;9.23;;;1.90;99.90;;;;;;5014496;28;20080;-87
2023/12/04 10:29:52;;;;;;;15.45;8.55;;;1.90;99.90;;;;;;5030204;28;20121;-89
2023/12/04 10:32:24;;;;;;;19.45;10.63;;;1.90;99.90;;;;;;5007909;28;20029;-88
2023/12/04 10:34:50;;;;;;;18.50;10.25;;;1.90;99.90;;;;;;5022930;28;20017;-89
2023/12/04 10:37:16;;;;;;;16.55;9.05;;;1.90;99.90;;;;;;5001911;28;20383;-88
2023/12/04 10:39:50;;;;;;;17.25;9.98;;;1.90;99.90;;;;;;5013697;28;20036;-87
2023/12/04 10:42:29;;;;;;;16.77;8.93;;;1.90;99.90;;;;;;5006886;28;20481;-88
2023/12/04 10:44:58;;;;;;;17.67;9.52;;;2.00;99.90;;;;;;5007135;28;20036;-88
2023/12/04 10:47:24;;;;;;;17.25;9.82;;;1.90;99.90;;;;;;5009720;28;20026;-88
2023/12/04 10:49:51;;;;;;;17.63;9.60;;;1.90;99.90;;;;;;5011060;28;20025;-88
2023/12/04 10:52:20;;;;;;;18.27;9.55;;;1.90;99.90;;;;;;4996868;28;20512;-88
2023/12/04 10:54:49;;;;;;;17.05;9.70;;;1.90;99.90;;;;;;5002744;28;20036;-88
2023/12/04 10:57:43;;;;;;;17.77;10.02;;;2.00;99.90;;;;;;4998610;28;20041;-88
2023/12/04 11:00:09;;;;;;;18.55;10.85;;;2.00;99.90;;;;;;5006305;28;20046;-88
2023/12/04 11:02:40;;;;;;;18.40;10.05;;;2.00;99.90;;;;;;5011180;28;20033;-88
2023/12/04 11:05:13;;;;;;;17.95;9.80;;;2.00;99.90;;;;;;5017429;23;20111;-88
2023/12/04 11:07:44;;;;;;;16.02;9.25;;;2.00;99.90;;;;;;5010813;28;20040;-86
2023/12/04 11:10:12;;;;;;;17.15;9.20;;;2.10;99.90;;;;;;5015388;28;20034;-87
2023/12/04 11:12:44;;;;;;;18.50;9.90;;;2.10;99.90;;;;;;5014916;28;20026;-88
2023/12/04 11:15:13;;;;;;;15.15;8.93;;;2.10;99.90;;;;;;5014372;28;20030;-88
2023/12/04 11:17:42;;;;;;;16.92;9.52;;;2.10;99.90;;;;;;5006620;28;20030;-87
2023/12/04 11:20:13;;;;;;;16.63;9.02;;;2.10;99.90;;;;;;5003488;28;20045;-88
2023/12/04 11:22:40;;;;;;;18.42;10.50;;;2.10;99.90;;;;;;5013493;28;20071;-87
2023/12/04 11:25:07;;;;;;;18.30;9.68;;;2.20;99.90;;;;;;5015602;28;20121;-87
2023/12/04 11:27:34;;;;;;;17.02;9.45;;;2.20;99.90;;;;;;5004740;28;20073;-87
2023/12/04 11:30:02;;;;;;;17.33;9.65;;;2.20;99.90;;;;;;5014223;28;20029;-87
2023/12/04 11:32:29;;;;;;;16.25;9.23;;;2.20;99.90;;;;;;5011358;28;20060;-87
2023/12/04 11:34:58;;;;;;;17.65;9.80;;;2.20;99.90;;;;;;5011647;28;20026;-87
2023/12/04 11:37:24;;;;;;;18.65;9.80;;;2.20;99.90;;;;;;5010047;28;20022;-87
2023/12/04 11:39:50;;;;;;;17.25;9.10;;;2.20;99.90;;;;;;5010556;28;20041;-87
2023/12/04 11:42:23;;;;;;;15.00;8.57;;;2.20;99.90;;;;;;5015437;28;20065;-86
2023/12/04 11:44:55;;;;;;;18.02;9.23;;;2.20;99.90;;;;;;5014383;28;20109;-88
2023/12/04 11:47:21;;;;;;;17.67;9.05;;;2.20;99.90;;;;;;5011212;28;20037;-88
2023/12/04 11:49:46;;;;;;;16.17;9.68;;;2.20;99.90;;;;;;5012711;28;20482;-87
2023/12/04 11:52:12;;;;;;;17.40;9.40;;;2.20;99.90;;;;;;5014347;28;20028;-88
2023/12/04 11:55:05;;;;;;;15.60;9.25;;;2.20;99.90;;;;;;5014667;28;20029;-88
2023/12/04 11:57:39;;;;;;;15.82;9.20;;;2.30;99.90;;;;;;5006313;28;20036;-88
2023/12/04 12:00:21;;;;;;;15.25;8.57;;;2.30;99.90;;;;;;5012604;28;20080;-89
2023/12/04 12:02:53;;;;;;;16.40;9.35;;;2.30;99.90;;;;;;5013914;28;20475;-89
2023/12/04 12:05:22;;;;;;;18.50;9.30;;;2.30;99.90;;;;;;5015397;28;20054;-88
2023/12/04 12:07:48;;;;;;;17.00;9.20;;;2.30;99.90;;;;;;5014937;28;20034;-89
2023/12/04 12:10:14;;;;;;;18.45;9.77;;;2.30;99.90;;;;;;5017162;28;20026;-88
2023/12/04 12:12:40;;;;;;;17.33;9.25;;;2.30;99.90;;;;;;5016658;28;20108;-88
2023/12/04 12:15:12;;;;;;;17.25;8.98;;;2.30;99.90;;;;;;5016992;28;20036;-88
2023/12/04 12:17:39;;;;;;;15.35;8.65;;;2.30;99.90;;;;;;5015367;28;20089;-89
2023/12/04 12:20:07;;;;;;;18.65;10.00;;;2.30;99.90;;;;;;5005072;28;20036;-89
2023/12/04 12:22:37;;;;;;;14.80;9.00;;;2.30;99.90;;;;;;5016809;28;20543;-88
2023/12/04 12:25:07;;;;;;;16.77;9.43;;;2.40;99.90;;;;;;5016861;28;20109;-88
2023/12/04 12:27:34;;;;;;;17.20;8.85;;;2.40;99.90;;;;;;5014968;28;20044;-89
2023/12/04 12:30:03;;;;;;;16.00;8.98;;;2.40;99.90;;;;;;5003796;28;20030;-88
2023/12/04 12:32:28;;;;;;;17.45;9.80;;;2.50;99.90;;;;;;5016754;28;20033;-88
2023/12/04 12:34:54;;;;;;;14.75;8.45;;;2.50;99.90;;;;;;5016856;28;20083;-88
2023/12/04 12:37:20;;;;;;;16.35;9.05;;;2.50;99.90;;;;;;5009793;28;20068;-88